Terminal Aerodrome Forecast
Issued by NWS Lake Charles, LA

Home | Current Version | Previous Version | Text Only | Print | Product List | Glossary On
Versions: 1 2 3 4 5 6 7 8 9 10 11 12 13 14 15 16 17 18 19 20 21 22 23 24 25 26
000
FTUS44 KLCH 231100
TAFLCH
TAF
KLCH 231135Z 2312/2412 25007KT P6SM -RA FEW070 BKN090 OVC120
      TEMPO 2312/2313 FEW025 OVC050
     FM231300 24005KT P6SM FEW050 SCT090 OVC200
     FM231500 26010KT P6SM SCT015 SCT250
     FM231800 21010KT P6SM OVC250=

USA.gov is the U.S. government's official web portal to all federal, state and local government web resources and services.